sensor_id;sensor_type;location;lat;lon;timestamp;temperature;humidity
52016;DHT22;38032;53.326;6.472;2023-04-25T00:01:31;9.00;99.90
52016;DHT22;38032;53.326;6.472;2023-04-25T00:04:02;9.00;99.90
52016;DHT22;38032;53.326;6.472;2023-04-25T00:06:28;9.00;99.90
52016;DHT22;38032;53.326;6.472;2023-04-25T00:08:55;9.00;99.90
52016;DHT22;38032;53.326;6.472;2023-04-25T00:11:22;8.90;99.90
52016;DHT22;38032;53.326;6.472;2023-04-25T00:13:48;8.90;99.90
52016;DHT22;38032;53.326;6.472;2023-04-25T00:16:16;8.80;99.90
52016;DHT22;38032;53.326;6.472;2023-04-25T00:18:42;8.80;99.90
52016;DHT22;38032;53.326;6.472;2023-04-25T00:21:08;8.80;99.90
52016;DHT22;38032;53.326;6.472;2023-04-25T00:23:34;8.70;99.90
52016;DHT22;38032;53.326;6.472;2023-04-25T00:26:02;8.70;99.90
52016;DHT22;38032;53.326;6.472;2023-04-25T00:28:28;8.70;99.90
52016;DHT22;38032;53.326;6.472;2023-04-25T00:30:54;8.70;99.90
52016;DHT22;38032;53.326;6.472;2023-04-25T00:33:20;8.70;99.90
52016;DHT22;38032;53.326;6.472;2023-04-25T00:35:46;8.80;99.90
52016;DHT22;38032;53.326;6.472;2023-04-25T00:38:12;8.70;99.90
52016;DHT22;38032;53.326;6.472;2023-04-25T00:40:38;8.70;99.90
52016;DHT22;38032;53.326;6.472;2023-04-25T00:43:04;8.70;99.90
52016;DHT22;38032;53.326;6.472;2023-04-25T00:45:30;8.60;99.90
52016;DHT22;38032;53.326;6.472;2023-04-25T00:47:56;8.60;99.90
52016;DHT22;38032;53.326;6.472;2023-04-25T00:50:23;8.70;99.90
52016;DHT22;38032;53.326;6.472;2023-04-25T00:52:49;8.70;99.90
52016;DHT22;38032;53.326;6.472;2023-04-25T00:55:15;8.70;99.90
52016;DHT22;38032;53.326;6.472;2023-04-25T00:57:42;8.70;99.90
52016;DHT22;38032;53.326;6.472;2023-04-25T01:00:08;8.60;99.90
52016;DHT22;38032;53.326;6.472;2023-04-25T01:02:36;8.60;99.90
52016;DHT22;38032;53.326;6.472;2023-04-25T01:05:03;8.50;99.90
52016;DHT22;38032;53.326;6.472;2023-04-25T01:07:29;8.60;99.90
52016;DHT22;38032;53.326;6.472;2023-04-25T01:09:55;8.50;99.90
52016;DHT22;38032;53.326;6.472;2023-04-25T01:12:23;8.40;99.90
52016;DHT22;38032;53.326;6.472;2023-04-25T01:14:49;8.40;99.90
52016;DHT22;38032;53.326;6.472;2023-04-25T01:17:15;8.40;99.90
52016;DHT22;38032;53.326;6.472;2023-04-25T01:19:41;8.40;99.90
52016;DHT22;38032;53.326;6.472;2023-04-25T01:22:07;8.40;99.90
52016;DHT22;38032;53.326;6.472;2023-04-25T01:24:36;8.40;99.90
52016;DHT22;38032;53.326;6.472;2023-04-25T01:27:02;8.40;99.90
52016;DHT22;38032;53.326;6.472;2023-04-25T01:29:29;8.40;99.90
52016;DHT22;38032;53.326;6.472;2023-04-25T01:31:55;8.40;99.90
52016;DHT22;38032;53.326;6.472;2023-04-25T01:34:23;8.40;99.90
52016;DHT22;38032;53.326;6.472;2023-04-25T01:36:50;8.40;99.90
52016;DHT22;38032;53.326;6.472;2023-04-25T01:39:17;8.40;99.90
52016;DHT22;38032;53.326;6.472;2023-04-25T01:41:44;8.40;99.90
52016;DHT22;38032;53.326;6.472;2023-04-25T01:44:10;8.40;99.90
52016;DHT22;38032;53.326;6.472;2023-04-25T01:46:36;8.40;99.90
52016;DHT22;38032;53.326;6.472;2023-04-25T01:49:02;8.40;99.90
52016;DHT22;38032;53.326;6.472;2023-04-25T01:51:28;8.30;99.90
52016;DHT22;38032;53.326;6.472;2023-04-25T01:53:55;8.30;99.90
52016;DHT22;38032;53.326;6.472;2023-04-25T01:56:20;8.30;99.90
52016;DHT22;38032;53.326;6.472;2023-04-25T01:58:46;8.20;99.90
52016;DHT22;38032;53.326;6.472;2023-04-25T02:01:12;8.20;99.90
52016;DHT22;38032;53.326;6.472;2023-04-25T02:03:38;8.10;99.90
52016;DHT22;38032;53.326;6.472;2023-04-25T02:06:04;8.10;99.90
52016;DHT22;38032;53.326;6.472;2023-04-25T02:08:30;8.10;99.90
52016;DHT22;38032;53.326;6.472;2023-04-25T02:10:57;8.00;99.90
52016;DHT22;38032;53.326;6.472;2023-04-25T02:13:23;8.00;99.90
52016;DHT22;38032;53.326;6.472;2023-04-25T02:15:49;8.00;99.90
52016;DHT22;38032;53.326;6.472;2023-04-25T02:18:15;8.00;99.90
52016;DHT22;38032;53.326;6.472;2023-04-25T02:20:42;8.00;99.90
52016;DHT22;38032;53.326;6.472;2023-04-25T02:23:08;8.10;99.90
52016;DHT22;38032;53.326;6.472;2023-04-25T02:25:34;8.00;99.90
52016;DHT22;38032;53.326;6.472;2023-04-25T02:28:00;8.00;99.90
52016;DHT22;38032;53.326;6.472;2023-04-25T02:30:26;8.00;99.90
52016;DHT22;38032;53.326;6.472;2023-04-25T02:32:52;8.00;99.90
52016;DHT22;38032;53.326;6.472;2023-04-25T02:35:18;7.90;99.90
52016;DHT22;38032;53.326;6.472;2023-04-25T02:37:44;7.90;99.90
52016;DHT22;38032;53.326;6.472;2023-04-25T02:40:10;8.00;99.90
52016;DHT22;38032;53.326;6.472;2023-04-25T02:42:36;8.00;99.90
52016;DHT22;38032;53.326;6.472;2023-04-25T02:45:02;8.00;99.90
52016;DHT22;38032;53.326;6.472;2023-04-25T02:47:29;8.00;99.90
52016;DHT22;38032;53.326;6.472;2023-04-25T02:49:54;7.90;99.90
52016;DHT22;38032;53.326;6.472;2023-04-25T02:52:20;7.90;99.90
52016;DHT22;38032;53.326;6.472;2023-04-25T02:54:46;7.90;99.90
52016;DHT22;38032;53.326;6.472;2023-04-25T02:57:12;7.90;99.90
52016;DHT22;38032;53.326;6.472;2023-04-25T02:59:38;7.90;99.90
52016;DHT22;38032;53.326;6.472;2023-04-25T03:02:04;7.80;99.90
52016;DHT22;38032;53.326;6.472;2023-04-25T03:04:30;7.80;99.90
52016;DHT22;38032;53.326;6.472;2023-04-25T03:06:55;7.70;99.90
52016;DHT22;38032;53.326;6.472;2023-04-25T03:09:21;7.70;99.90
52016;DHT22;38032;53.326;6.472;2023-04-25T03:11:47;7.70;99.90
52016;DHT22;38032;53.326;6.472;2023-04-25T03:14:13;7.60;99.90
52016;DHT22;38032;53.326;6.472;2023-04-25T03:16:39;7.60;99.90
52016;DHT22;38032;53.326;6.472;2023-04-25T03:19:05;7.50;99.90
52016;DHT22;38032;53.326;6.472;2023-04-25T03:21:34;7.50;99.90
52016;DHT22;38032;53.326;6.472;2023-04-25T03:24:01;7.50;99.90
52016;DHT22;38032;53.326;6.472;2023-04-25T03:26:28;7.40;99.90
52016;DHT22;38032;53.326;6.472;2023-04-25T03:28:54;7.40;99.90
52016;DHT22;38032;53.326;6.472;2023-04-25T03:31:20;7.40;99.90
52016;DHT22;38032;53.326;6.472;2023-04-25T03:33:46;7.40;99.90
52016;DHT22;38032;53.326;6.472;2023-04-25T03:36:12;7.40;99.90
52016;DHT22;38032;53.326;6.472;2023-04-25T03:38:38;7.50;99.90
52016;DHT22;38032;53.326;6.472;2023-04-25T03:41:04;7.40;99.90
52016;DHT22;38032;53.326;6.472;2023-04-25T03:43:30;7.50;99.90
52016;DHT22;38032;53.326;6.472;2023-04-25T03:45:56;7.60;99.90
52016;DHT22;38032;53.326;6.472;2023-04-25T03:48:22;7.50;99.90
52016;DHT22;38032;53.326;6.472;2023-04-25T03:50:50;7.40;99.90
52016;DHT22;38032;53.326;6.472;2023-04-25T03:53:16;7.50;99.90
52016;DHT22;38032;53.326;6.472;2023-04-25T03:55:42;7.50;99.90
52016;DHT22;38032;53.326;6.472;2023-04-25T03:58:07;7.40;99.90
52016;DHT22;38032;53.326;6.472;2023-04-25T04:00:35;7.20;99.90
52016;DHT22;38032;53.326;6.472;2023-04-25T04:05:27;7.20;99.90
52016;DHT22;38032;53.326;6.472;2023-04-25T04:07:54;7.10;99.90
52016;DHT22;38032;53.326;6.472;2023-04-25T04:10:21;7.10;99.90
52016;DHT22;38032;53.326;6.472;2023-04-25T04:12:47;7.00;99.90
52016;DHT22;38032;53.326;6.472;2023-04-25T04:15:13;7.00;99.90
52016;DHT22;38032;53.326;6.472;2023-04-25T04:17:39;6.90;99.90
52016;DHT22;38032;53.326;6.472;2023-04-25T04:20:05;6.90;99.90
52016;DHT22;38032;53.326;6.472;2023-04-25T04:22:31;6.90;99.90
52016;DHT22;38032;53.326;6.472;2023-04-25T04:24:57;6.90;99.90
52016;DHT22;38032;53.326;6.472;2023-04-25T04:27:23;6.90;99.90
52016;DHT22;38032;53.326;6.472;2023-04-25T04:29:49;6.80;99.90
52016;DHT22;38032;53.326;6.472;2023-04-25T04:32:17;6.80;99.90
52016;DHT22;38032;53.326;6.472;2023-04-25T04:34:43;6.80;99.90
52016;DHT22;38032;53.326;6.472;2023-04-25T04:37:09;6.70;99.90
52016;DHT22;38032;53.326;6.472;2023-04-25T04:39:36;6.80;99.90
52016;DHT22;38032;53.326;6.472;2023-04-25T04:42:02;6.80;99.90
52016;DHT22;38032;53.326;6.472;2023-04-25T04:44:29;6.80;99.90
52016;DHT22;38032;53.326;6.472;2023-04-25T04:46:58;6.90;99.90
52016;DHT22;38032;53.326;6.472;2023-04-25T04:49:24;7.00;99.90
52016;DHT22;38032;53.326;6.472;2023-04-25T04:51:50;7.00;99.90
52016;DHT22;38032;53.326;6.472;2023-04-25T04:54:16;7.00;99.90
52016;DHT22;38032;53.326;6.472;2023-04-25T04:56:42;6.90;99.90
52016;DHT22;38032;53.326;6.472;2023-04-25T04:59:09;6.90;99.90
52016;DHT22;38032;53.326;6.472;2023-04-25T05:01:35;6.90;99.90
52016;DHT22;38032;53.326;6.472;2023-04-25T05:04:01;7.00;99.90
52016;DHT22;38032;53.326;6.472;2023-04-25T05:06:28;7.00;99.90
52016;DHT22;38032;53.326;6.472;2023-04-25T05:08:57;6.90;99.90
52016;DHT22;38032;53.326;6.472;2023-04-25T05:11:24;6.90;99.90
52016;DHT22;38032;53.326;6.472;2023-04-25T05:13:52;6.90;99.90
52016;DHT22;38032;53.326;6.472;2023-04-25T05:16:18;6.80;99.90
52016;DHT22;38032;53.326;6.472;2023-04-25T05:18:45;6.80;99.90
52016;DHT22;38032;53.326;6.472;2023-04-25T05:21:11;6.70;99.90
52016;DHT22;38032;53.326;6.472;2023-04-25T05:23:37;6.80;99.90
52016;DHT22;38032;53.326;6.472;2023-04-25T05:26:03;6.70;99.90
52016;DHT22;38032;53.326;6.472;2023-04-25T05:28:29;6.70;99.90
52016;DHT22;38032;53.326;6.472;2023-04-25T05:30:55;6.80;99.90
52016;DHT22;38032;53.326;6.472;2023-04-25T05:33:21;6.70;99.90
52016;DHT22;38032;53.326;6.472;2023-04-25T05:35:46;6.70;99.90
52016;DHT22;38032;53.326;6.472;2023-04-25T05:38:12;6.70;99.90
52016;DHT22;38032;53.326;6.472;2023-04-25T05:40:38;6.80;99.90
52016;DHT22;38032;53.326;6.472;2023-04-25T05:43:04;6.90;99.90
52016;DHT22;38032;53.326;6.472;2023-04-25T05:45:30;7.00;99.90
52016;DHT22;38032;53.326;6.472;2023-04-25T05:47:56;7.10;99.90
52016;DHT22;38032;53.326;6.472;2023-04-25T05:50:22;7.20;99.90
52016;DHT22;38032;53.326;6.472;2023-04-25T05:52:47;7.30;99.90
52016;DHT22;38032;53.326;6.472;2023-04-25T05:55:13;7.40;99.90
52016;DHT22;38032;53.326;6.472;2023-04-25T05:57:39;7.90;99.90
52016;DHT22;38032;53.326;6.472;2023-04-25T06:00:09;8.00;99.90
52016;DHT22;38032;53.326;6.472;2023-04-25T06:02:35;8.10;99.90
52016;DHT22;38032;53.326;6.472;2023-04-25T06:05:01;8.10;99.90
52016;DHT22;38032;53.326;6.472;2023-04-25T06:07:29;8.10;99.90
52016;DHT22;38032;53.326;6.472;2023-04-25T06:09:56;8.10;99.90
52016;DHT22;38032;53.326;6.472;2023-04-25T06:12:22;8.70;99.90
52016;DHT22;38032;53.326;6.472;2023-04-25T06:14:48;9.40;99.90
52016;DHT22;38032;53.326;6.472;2023-04-25T06:17:14;9.40;99.90
52016;DHT22;38032;53.326;6.472;2023-04-25T06:19:40;10.50;99.90
52016;DHT22;38032;53.326;6.472;2023-04-25T06:22:06;10.60;99.90
52016;DHT22;38032;53.326;6.472;2023-04-25T06:24:33;11.00;99.90
52016;DHT22;38032;53.326;6.472;2023-04-25T06:26:59;11.40;99.90
52016;DHT22;38032;53.326;6.472;2023-04-25T06:29:25;11.50;99.90
52016;DHT22;38032;53.326;6.472;2023-04-25T06:31:51;11.50;99.90
52016;DHT22;38032;53.326;6.472;2023-04-25T06:34:17;11.40;99.90
52016;DHT22;38032;53.326;6.472;2023-04-25T06:36:43;11.20;99.90
52016;DHT22;38032;53.326;6.472;2023-04-25T06:39:10;11.10;99.90
52016;DHT22;38032;53.326;6.472;2023-04-25T06:41:36;11.00;99.90
52016;DHT22;38032;53.326;6.472;2023-04-25T06:44:02;11.00;99.90
52016;DHT22;38032;53.326;6.472;2023-04-25T06:46:28;11.00;99.90
52016;DHT22;38032;53.326;6.472;2023-04-25T06:48:54;11.00;99.90
52016;DHT22;38032;53.326;6.472;2023-04-25T06:51:20;10.90;99.90
52016;DHT22;38032;53.326;6.472;2023-04-25T06:53:45;10.80;99.90
52016;DHT22;38032;53.326;6.472;2023-04-25T06:56:11;10.90;99.90
52016;DHT22;38032;53.326;6.472;2023-04-25T06:58:37;11.10;99.90
52016;DHT22;38032;53.326;6.472;2023-04-25T07:01:03;11.40;99.90
52016;DHT22;38032;53.326;6.472;2023-04-25T07:03:29;11.60;99.90
52016;DHT22;38032;53.326;6.472;2023-04-25T07:05:55;11.60;99.90
52016;DHT22;38032;53.326;6.472;2023-04-25T07:08:21;11.70;99.90
52016;DHT22;38032;53.326;6.472;2023-04-25T07:10:47;11.70;99.90
52016;DHT22;38032;53.326;6.472;2023-04-25T07:13:13;12.10;99.90
52016;DHT22;38032;53.326;6.472;2023-04-25T07:15:39;12.10;99.90
52016;DHT22;38032;53.326;6.472;2023-04-25T07:18:05;12.50;99.90
52016;DHT22;38032;53.326;6.472;2023-04-25T07:20:30;12.60;99.90
52016;DHT22;38032;53.326;6.472;2023-04-25T07:22:57;12.50;99.90
52016;DHT22;38032;53.326;6.472;2023-04-25T07:25:23;12.40;99.90
52016;DHT22;38032;53.326;6.472;2023-04-25T07:27:49;12.30;99.90
52016;DHT22;38032;53.326;6.472;2023-04-25T07:30:15;12.10;99.90
52016;DHT22;38032;53.326;6.472;2023-04-25T07:32:41;11.90;99.90
52016;DHT22;38032;53.326;6.472;2023-04-25T07:35:07;11.80;99.90
52016;DHT22;38032;53.326;6.472;2023-04-25T07:37:34;11.80;99.90
52016;DHT22;38032;53.326;6.472;2023-04-25T07:40:00;13.00;99.90
52016;DHT22;38032;53.326;6.472;2023-04-25T07:42:25;13.30;99.90
52016;DHT22;38032;53.326;6.472;2023-04-25T07:44:51;14.50;99.00
52016;DHT22;38032;53.326;6.472;2023-04-25T07:47:17;15.20;96.80
52016;DHT22;38032;53.326;6.472;2023-04-25T07:49:44;15.60;94.90
52016;DHT22;38032;53.326;6.472;2023-04-25T07:52:11;16.20;92.70
52016;DHT22;38032;53.326;6.472;2023-04-25T07:54:37;16.30;90.40
52016;DHT22;38032;53.326;6.472;2023-04-25T07:57:03;16.00;87.60
52016;DHT22;38032;53.326;6.472;2023-04-25T07:59:29;15.40;87.80
52016;DHT22;38032;53.326;6.472;2023-04-25T08:01:55;14.80;89.50
52016;DHT22;38032;53.326;6.472;2023-04-25T08:04:23;14.20;90.20
52016;DHT22;38032;53.326;6.472;2023-04-25T08:06:49;13.50;91.10
52016;DHT22;38032;53.326;6.472;2023-04-25T08:09:15;13.10;92.10
52016;DHT22;38032;53.326;6.472;2023-04-25T08:11:42;12.80;94.40
52016;DHT22;38032;53.326;6.472;2023-04-25T08:14:08;12.70;96.10
52016;DHT22;38032;53.326;6.472;2023-04-25T08:16:34;12.70;96.80
52016;DHT22;38032;53.326;6.472;2023-04-25T08:19:00;12.70;97.40
52016;DHT22;38032;53.326;6.472;2023-04-25T08:21:26;12.80;97.20
52016;DHT22;38032;53.326;6.472;2023-04-25T08:23:53;12.80;96.30
52016;DHT22;38032;53.326;6.472;2023-04-25T08:26:18;12.90;95.90
52016;DHT22;38032;53.326;6.472;2023-04-25T08:28:45;12.90;95.50
52016;DHT22;38032;53.326;6.472;2023-04-25T08:31:11;13.20;95.30
52016;DHT22;38032;53.326;6.472;2023-04-25T08:33:37;13.80;95.10
52016;DHT22;38032;53.326;6.472;2023-04-25T08:36:03;14.60;94.40
52016;DHT22;38032;53.326;6.472;2023-04-25T08:38:29;15.60;93.20
52016;DHT22;38032;53.326;6.472;2023-04-25T08:40:56;16.30;91.40
52016;DHT22;38032;53.326;6.472;2023-04-25T08:43:25;16.70;88.00
52016;DHT22;38032;53.326;6.472;2023-04-25T08:45:53;17.50;84.50
52016;DHT22;38032;53.326;6.472;2023-04-25T08:48:21;18.40;79.50
52016;DHT22;38032;53.326;6.472;2023-04-25T08:50:51;19.20;82.40
52016;DHT22;38032;53.326;6.472;2023-04-25T08:53:25;19.00;79.30
52016;DHT22;38032;53.326;6.472;2023-04-25T08:55:53;18.40;76.10
52016;DHT22;38032;53.326;6.472;2023-04-25T08:58:19;18.20;76.00
52016;DHT22;38032;53.326;6.472;2023-04-25T09:00:47;18.60;75.20
52016;DHT22;38032;53.326;6.472;2023-04-25T09:03:13;18.30;73.90
52016;DHT22;38032;53.326;6.472;2023-04-25T09:05:40;18.70;73.10
52016;DHT22;38032;53.326;6.472;2023-04-25T09:08:06;18.70;72.10
52016;DHT22;38032;53.326;6.472;2023-04-25T09:10:33;18.70;71.00
52016;DHT22;38032;53.326;6.472;2023-04-25T09:13:08;18.30;72.60
52016;DHT22;38032;53.326;6.472;2023-04-25T09:15:53;17.40;71.20
52016;DHT22;38032;53.326;6.472;2023-04-25T09:18:28;16.60;70.80
52016;DHT22;38032;53.326;6.472;2023-04-25T09:20:55;16.20;73.80
52016;DHT22;38032;53.326;6.472;2023-04-25T09:23:22;16.30;75.30
52016;DHT22;38032;53.326;6.472;2023-04-25T09:25:52;16.70;77.50
52016;DHT22;38032;53.326;6.472;2023-04-25T09:28:25;17.00;76.50
52016;DHT22;38032;53.326;6.472;2023-04-25T09:30:56;17.00;73.60
52016;DHT22;38032;53.326;6.472;2023-04-25T09:33:37;17.30;73.20
52016;DHT22;38032;53.326;6.472;2023-04-25T09:36:07;18.00;72.30
52016;DHT22;38032;53.326;6.472;2023-04-25T09:38:41;18.70;70.30
52016;DHT22;38032;53.326;6.472;2023-04-25T09:41:08;19.60;68.40
52016;DHT22;38032;53.326;6.472;2023-04-25T09:43:35;20.50;67.90
52016;DHT22;38032;53.326;6.472;2023-04-25T09:46:02;20.90;66.10
52016;DHT22;38032;53.326;6.472;2023-04-25T09:48:28;21.70;66.00
52016;DHT22;38032;53.326;6.472;2023-04-25T09:51:08;21.80;79.30
52016;DHT22;38032;53.326;6.472;2023-04-25T09:53:37;21.60;79.10
52016;DHT22;38032;53.326;6.472;2023-04-25T09:56:05;21.20;78.20
52016;DHT22;38032;53.326;6.472;2023-04-25T09:58:32;20.40;76.20
52016;DHT22;38032;53.326;6.472;2023-04-25T10:01:01;18.90;64.00
52016;DHT22;38032;53.326;6.472;2023-04-25T10:03:30;17.70;65.40
52016;DHT22;38032;53.326;6.472;2023-04-25T10:06:00;16.90;66.10
52016;DHT22;38032;53.326;6.472;2023-04-25T10:08:31;16.20;66.60
52016;DHT22;38032;53.326;6.472;2023-04-25T10:11:01;15.70;67.30
52016;DHT22;38032;53.326;6.472;2023-04-25T10:13:29;15.40;68.30
52016;DHT22;38032;53.326;6.472;2023-04-25T10:15:58;15.60;70.20
52016;DHT22;38032;53.326;6.472;2023-04-25T10:18:26;16.00;71.50
52016;DHT22;38032;53.326;6.472;2023-04-25T10:20:55;16.80;73.10
52016;DHT22;38032;53.326;6.472;2023-04-25T10:23:22;17.90;74.70
52016;DHT22;38032;53.326;6.472;2023-04-25T10:25:51;18.50;72.20
52016;DHT22;38032;53.326;6.472;2023-04-25T10:28:17;18.70;70.70
52016;DHT22;38032;53.326;6.472;2023-04-25T10:31:07;18.40;68.30
52016;DHT22;38032;53.326;6.472;2023-04-25T10:36:10;18.70;69.80
52016;DHT22;38032;53.326;6.472;2023-04-25T10:38:36;19.30;70.80
52016;DHT22;38032;53.326;6.472;2023-04-25T10:41:06;20.00;70.10
52016;DHT22;38032;53.326;6.472;2023-04-25T10:43:36;20.50;68.50
52016;DHT22;38032;53.326;6.472;2023-04-25T10:46:17;20.90;67.00
52016;DHT22;38032;53.326;6.472;2023-04-25T10:48:47;21.30;63.70
52016;DHT22;38032;53.326;6.472;2023-04-25T10:51:20;21.20;61.60
52016;DHT22;38032;53.326;6.472;2023-04-25T10:53:48;20.90;60.70
52016;DHT22;38032;53.326;6.472;2023-04-25T10:56:22;20.70;60.50
52016;DHT22;38032;53.326;6.472;2023-04-25T10:58:48;20.70;60.90
52016;DHT22;38032;53.326;6.472;2023-04-25T11:01:20;20.80;61.00
52016;DHT22;38032;53.326;6.472;2023-04-25T11:03:46;20.80;60.40
52016;DHT22;38032;53.326;6.472;2023-04-25T11:06:23;20.80;61.20
52016;DHT22;38032;53.326;6.472;2023-04-25T11:08:50;20.70;61.60
52016;DHT22;38032;53.326;6.472;2023-04-25T11:11:17;20.70;62.30
52016;DHT22;38032;53.326;6.472;2023-04-25T11:13:47;20.70;62.90
52016;DHT22;38032;53.326;6.472;2023-04-25T11:16:13;20.70;62.90
52016;DHT22;38032;53.326;6.472;2023-04-25T11:18:43;20.70;62.70
52016;DHT22;38032;53.326;6.472;2023-04-25T11:21:10;20.60;63.00
52016;DHT22;38032;53.326;6.472;2023-04-25T11:23:36;20.60;63.30
52016;DHT22;38032;53.326;6.472;2023-04-25T11:26:03;20.40;62.10
52016;DHT22;38032;53.326;6.472;2023-04-25T11:28:29;20.30;62.70
52016;DHT22;38032;53.326;6.472;2023-04-25T11:30:56;20.30;62.70
52016;DHT22;38032;53.326;6.472;2023-04-25T11:33:24;20.20;62.20
52016;DHT22;38032;53.326;6.472;2023-04-25T11:35:53;20.10;61.00
52016;DHT22;38032;53.326;6.472;2023-04-25T11:38:19;20.00;61.00
52016;DHT22;38032;53.326;6.472;2023-04-25T11:40:49;20.00;61.30
52016;DHT22;38032;53.326;6.472;2023-04-25T11:43:16;19.90;61.60
52016;DHT22;38032;53.326;6.472;2023-04-25T11:45:46;19.80;61.60
52016;DHT22;38032;53.326;6.472;2023-04-25T11:48:13;19.80;61.00
52016;DHT22;38032;53.326;6.472;2023-04-25T11:50:39;19.60;61.30
52016;DHT22;38032;53.326;6.472;2023-04-25T11:53:06;19.40;61.00
52016;DHT22;38032;53.326;6.472;2023-04-25T11:55:33;19.20;60.80
52016;DHT22;38032;53.326;6.472;2023-04-25T11:58:00;18.80;60.30
52016;DHT22;38032;53.326;6.472;2023-04-25T12:00:26;18.40;60.30
52016;DHT22;38032;53.326;6.472;2023-04-25T12:02:54;18.20;61.30
52016;DHT22;38032;53.326;6.472;2023-04-25T12:05:21;18.00;62.00
52016;DHT22;38032;53.326;6.472;2023-04-25T12:07:49;17.80;62.70
52016;DHT22;38032;53.326;6.472;2023-04-25T12:10:16;17.70;62.50
52016;DHT22;38032;53.326;6.472;2023-04-25T12:12:45;17.60;63.60
52016;DHT22;38032;53.326;6.472;2023-04-25T12:15:13;17.60;62.60
52016;DHT22;38032;53.326;6.472;2023-04-25T12:17:42;17.40;61.50
52016;DHT22;38032;53.326;6.472;2023-04-25T12:20:13;17.20;61.50
52016;DHT22;38032;53.326;6.472;2023-04-25T12:22:41;17.20;62.50
52016;DHT22;38032;53.326;6.472;2023-04-25T12:25:12;17.10;63.50
52016;DHT22;38032;53.326;6.472;2023-04-25T12:27:38;17.20;63.70
52016;DHT22;38032;53.326;6.472;2023-04-25T12:30:08;17.20;63.60
52016;DHT22;38032;53.326;6.472;2023-04-25T12:32:35;17.00;63.00
52016;DHT22;38032;53.326;6.472;2023-04-25T12:35:01;16.80;62.80
52016;DHT22;38032;53.326;6.472;2023-04-25T12:37:28;16.60;62.70
52016;DHT22;38032;53.326;6.472;2023-04-25T12:39:54;16.40;62.80
52016;DHT22;38032;53.326;6.472;2023-04-25T12:42:20;16.40;63.90
52016;DHT22;38032;53.326;6.472;2023-04-25T12:44:46;16.20;64.30
52016;DHT22;38032;53.326;6.472;2023-04-25T12:47:12;16.00;64.70
52016;DHT22;38032;53.326;6.472;2023-04-25T12:49:38;16.00;65.40
52016;DHT22;38032;53.326;6.472;2023-04-25T12:52:03;15.90;66.10
52016;DHT22;38032;53.326;6.472;2023-04-25T12:54:29;16.00;66.60
52016;DHT22;38032;53.326;6.472;2023-04-25T12:56:56;16.10;66.30
52016;DHT22;38032;53.326;6.472;2023-04-25T12:59:22;16.00;66.20
52016;DHT22;38032;53.326;6.472;2023-04-25T13:01:48;15.90;65.80
52016;DHT22;38032;53.326;6.472;2023-04-25T13:04:14;15.90;66.00
52016;DHT22;38032;53.326;6.472;2023-04-25T13:06:41;15.90;66.40
52016;DHT22;38032;53.326;6.472;2023-04-25T13:09:07;15.70;66.70
52016;DHT22;38032;53.326;6.472;2023-04-25T13:11:32;15.60;66.70
52016;DHT22;38032;53.326;6.472;2023-04-25T13:13:58;15.40;70.70
52016;DHT22;38032;53.326;6.472;2023-04-25T13:16:25;15.40;70.60
52016;DHT22;38032;53.326;6.472;2023-04-25T13:18:53;15.40;72.10
52016;DHT22;38032;53.326;6.472;2023-04-25T13:21:19;15.20;71.90
52016;DHT22;38032;53.326;6.472;2023-04-25T13:23:45;15.30;71.60
52016;DHT22;38032;53.326;6.472;2023-04-25T13:26:12;15.20;71.40
52016;DHT22;38032;53.326;6.472;2023-04-25T13:28:38;15.20;70.90
52016;DHT22;38032;53.326;6.472;2023-04-25T13:31:05;15.10;70.30
52016;DHT22;38032;53.326;6.472;2023-04-25T13:33:31;15.10;69.70
52016;DHT22;38032;53.326;6.472;2023-04-25T13:35:56;15.10;70.50
52016;DHT22;38032;53.326;6.472;2023-04-25T13:38:25;15.30;71.40
52016;DHT22;38032;53.326;6.472;2023-04-25T13:40:51;15.10;71.10
52016;DHT22;38032;53.326;6.472;2023-04-25T13:43:20;15.10;71.80
52016;DHT22;38032;53.326;6.472;2023-04-25T13:45:49;15.10;69.30
52016;DHT22;38032;53.326;6.472;2023-04-25T13:48:15;15.00;68.80
52016;DHT22;38032;53.326;6.472;2023-04-25T13:50:41;15.00;70.00
52016;DHT22;38032;53.326;6.472;2023-04-25T13:53:07;15.00;70.50
52016;DHT22;38032;53.326;6.472;2023-04-25T13:55:34;14.90;70.00
52016;DHT22;38032;53.326;6.472;2023-04-25T13:58:02;14.90;70.50
52016;DHT22;38032;53.326;6.472;2023-04-25T14:00:34;14.80;71.00
52016;DHT22;38032;53.326;6.472;2023-04-25T14:03:00;14.70;71.80
52016;DHT22;38032;53.326;6.472;2023-04-25T14:05:30;14.80;72.40
52016;DHT22;38032;53.326;6.472;2023-04-25T14:07:56;14.80;71.20
52016;DHT22;38032;53.326;6.472;2023-04-25T14:10:22;14.90;71.40
52016;DHT22;38032;53.326;6.472;2023-04-25T14:12:48;14.90;71.20
52016;DHT22;38032;53.326;6.472;2023-04-25T14:15:14;14.80;70.90
52016;DHT22;38032;53.326;6.472;2023-04-25T14:17:40;14.80;70.00
52016;DHT22;38032;53.326;6.472;2023-04-25T14:20:08;14.70;70.40
52016;DHT22;38032;53.326;6.472;2023-04-25T14:22:34;14.70;70.90
52016;DHT22;38032;53.326;6.472;2023-04-25T14:25:00;14.70;71.30
52016;DHT22;38032;53.326;6.472;2023-04-25T14:27:26;14.70;71.30
52016;DHT22;38032;53.326;6.472;2023-04-25T14:29:53;14.50;71.70
52016;DHT22;38032;53.326;6.472;2023-04-25T14:32:19;14.30;72.50
52016;DHT22;38032;53.326;6.472;2023-04-25T14:34:45;14.00;73.20
52016;DHT22;38032;53.326;6.472;2023-04-25T14:37:11;13.80;73.70
52016;DHT22;38032;53.326;6.472;2023-04-25T14:39:37;13.70;76.10
52016;DHT22;38032;53.326;6.472;2023-04-25T14:42:03;13.80;79.50
52016;DHT22;38032;53.326;6.472;2023-04-25T14:44:29;13.90;82.50
52016;DHT22;38032;53.326;6.472;2023-04-25T14:46:55;14.00;85.90
52016;DHT22;38032;53.326;6.472;2023-04-25T14:49:21;14.00;85.80
52016;DHT22;38032;53.326;6.472;2023-04-25T14:51:47;14.10;86.10
52016;DHT22;38032;53.326;6.472;2023-04-25T14:54:13;14.10;87.90
52016;DHT22;38032;53.326;6.472;2023-04-25T14:56:38;14.10;88.00
52016;DHT22;38032;53.326;6.472;2023-04-25T14:59:04;14.00;86.00
52016;DHT22;38032;53.326;6.472;2023-04-25T15:01:30;14.00;84.10
52016;DHT22;38032;53.326;6.472;2023-04-25T15:03:56;14.00;84.10
52016;DHT22;38032;53.326;6.472;2023-04-25T15:06:22;13.90;83.50
52016;DHT22;38032;53.326;6.472;2023-04-25T15:08:51;13.90;82.30
52016;DHT22;38032;53.326;6.472;2023-04-25T15:11:18;13.90;81.20
52016;DHT22;38032;53.326;6.472;2023-04-25T15:13:45;14.00;80.10
52016;DHT22;38032;53.326;6.472;2023-04-25T15:16:11;13.90;79.40
52016;DHT22;38032;53.326;6.472;2023-04-25T15:18:37;13.90;78.90
52016;DHT22;38032;53.326;6.472;2023-04-25T15:21:03;13.80;78.20
52016;DHT22;38032;53.326;6.472;2023-04-25T15:23:29;13.70;79.20
52016;DHT22;38032;53.326;6.472;2023-04-25T15:25:55;13.70;79.60
52016;DHT22;38032;53.326;6.472;2023-04-25T15:28:21;13.60;78.70
52016;DHT22;38032;53.326;6.472;2023-04-25T15:30:48;13.50;79.30
52016;DHT22;38032;53.326;6.472;2023-04-25T15:33:14;13.60;79.80
52016;DHT22;38032;53.326;6.472;2023-04-25T15:35:40;13.60;81.00
52016;DHT22;38032;53.326;6.472;2023-04-25T15:38:07;13.50;81.90
52016;DHT22;38032;53.326;6.472;2023-04-25T15:40:33;13.50;83.80